Oberon — SKJF — position and weather

sailwx.info

Track history (hours):
 
Tides and Currents Weather Stations Pressure Air Temp Water Temp Dewpoint Dewpoint Depression Visibility Wind Speed Wind Dir Waves Ship Positions

Oberon

Last reported at 2015-Mar-22 05:13 UTC. Time now 2015-Mar-29 04:27 UTC.
Position N 38°36' W 076°26'.

Length 232 m; draft 8.6 m.

Type: Cargo ship. MMSI: 266283000.

Date/timePositionNaut miles runAvg speedWind from/ knotsBaromVisibWave heightAir tempDewpointWater temp
2015-Mar-22 05:13N 38°36' W 076°26'1318.8
2015-Mar-22 04:34N 38°49' W 076°25'1717.3
2015-Mar-22 03:33N 39°06' W 076°24'1110.8
2015-Mar-22 02:34N 39°14' W 076°33'1 0.5
2015-Mar-22 01:33N 39°14' W 076°32'0 0.0
2015-Mar-22 00:33N 39°14' W 076°32'0 0.0
2015-Mar-21 23:33N 39°14' W 076°32'0 0.0
2015-Mar-21 22:33N 39°14' W 076°32'0 0.0
2015-Mar-21 21:33N 39°14' W 076°32'0 0.0
2015-Mar-21 20:33N 39°14' W 076°32'0 0.0
2015-Mar-21 19:33N 39°14' W 076°32'0 0.0
2015-Mar-21 18:33N 39°14' W 076°32'0 0.0
2015-Mar-21 17:33N 39°14' W 076°32'0 0.0
2015-Mar-21 16:28N 39°14' W 076°32'0 0.0
2015-Mar-21 15:33N 39°14' W 076°32'0 0.0
2015-Mar-21 14:33N 39°14' W 076°32'0 0.0
2015-Mar-21 13:33N 39°14' W 076°32'0 0.0
2015-Mar-21 12:33N 39°14' W 076°32'0 0.0
2015-Mar-21 11:33N 39°14' W 076°32'2 1.9
2015-Mar-21 10:33N 39°13' W 076°31'1010.2
2015-Mar-21 09:33N 39°04' W 076°24'1616.4
2015-Mar-21 08:34N 38°48' W 076°25'  
2015-Mar-19 03:22N 31°58' W 080°24'7 9.2
2015-Mar-19 02:33N 31°57' W 080°33'9 8.8
2015-Mar-19 01:33N 31°58' W 080°43'1313.3
2015-Mar-19 00:33N 32°04' W 080°57'8 7.5
2015-Mar-18 23:33N 32°05' W 081°06'0 0.0
2015-Mar-18 22:31N 32°05' W 081°06'0 0.0
2015-Mar-18 21:31N 32°05' W 081°06'0 0.0
2015-Mar-18 20:31N 32°05' W 081°06'0 0.0
2015-Mar-18 19:31N 32°05' W 081°06'0 0.0
2015-Mar-18 18:31N 32°05' W 081°06'0 0.0
2015-Mar-18 17:31N 32°05' W 081°06'0 0.0
2015-Mar-18 16:31N 32°05' W 081°06'0 0.0
2015-Mar-18 15:32N 32°05' W 081°06'0 0.0
2015-Mar-18 14:32N 32°05' W 081°06'0 0.0
2015-Mar-18 13:32N 32°05' W 081°06'0 0.0
2015-Mar-18 12:28N 32°05' W 081°06'0 0.0
2015-Mar-18 11:31N 32°05' W 081°06'0 0.0
2015-Mar-18 10:31N 32°05' W 081°06'0 0.0
2015-Mar-18 09:31N 32°05' W 081°06'1 1.2
2015-Mar-18 08:33N 32°06' W 081°07'4 3.9
2015-Mar-18 07:33N 32°05' W 081°02'1212.5
2015-Mar-18 06:34N 32°01' W 080°48'1010.1
2015-Mar-18 05:33N 31°56' W 080°38'6 6.4
2015-Mar-18 04:33N 31°56' W 080°30'7 6.8
2015-Mar-18 03:33N 31°54' W 080°22'75 4.1
2015-Mar-17 09:33N 31°07' W 081°30'10 9.7
2015-Mar-17 08:33N 31°06' W 081°19'8 8.1
2015-Mar-17 07:33N 31°01' W 081°12'12 9.0
2015-Mar-17 06:14N 30°57' W 080°59'6 9.2
2015-Mar-17 05:32N 30°55' W 080°52'1111.1
2015-Mar-17 04:34N 30°45' W 080°46'1212.1
2015-Mar-17 03:33N 30°34' W 080°40'1211.9
2015-Mar-17 02:33N 30°23' W 080°34'10 9.7
2015-Mar-17 01:33N 30°14' W 080°30'21313.3
2015-Mar-16 09:33N 26°49' W 079°25'3918.1
2015-Mar-16 07:25N 26°10' W 079°28'1618.5
2015-Mar-16 06:33N 25°54' W 079°31'3818.8
2015-Mar-16 04:33N 25°17' W 079°37'2318.2
2015-Mar-16 03:16N 24°54' W 079°42'1317.6
2015-Mar-16 02:32N 24°42' W 079°47'  
Track history (hours):
 
Tides and Currents Weather Stations Pressure Air Temp Water Temp Dewpoint Dewpoint Depression Visibility Wind Speed Wind Dir Waves Ship Positions

Oberon

Last reported at 2015-Mar-22 05:13 UTC. Time now 2015-Mar-29 04:27 UTC.
Position N 38°36' W 076°26'.

Length 232 m; draft 8.6 m.

Type: Cargo ship. MMSI: 266283000.

Date/timePositionNaut miles runAvg speedWind from/ knotsBaromVisibWave heightAir tempDewpointWater temp
2015-Mar-22 05:13N 38°36' W 076°26'1318.8
2015-Mar-22 04:34N 38°49' W 076°25'1717.3
2015-Mar-22 03:33N 39°06' W 076°24'1110.8
2015-Mar-22 02:34N 39°14' W 076°33'1 0.5
2015-Mar-22 01:33N 39°14' W 076°32'0 0.0
2015-Mar-22 00:33N 39°14' W 076°32'0 0.0
2015-Mar-21 23:33N 39°14' W 076°32'0 0.0
2015-Mar-21 22:33N 39°14' W 076°32'0 0.0
2015-Mar-21 21:33N 39°14' W 076°32'0 0.0
2015-Mar-21 20:33N 39°14' W 076°32'0 0.0
2015-Mar-21 19:33N 39°14' W 076°32'0 0.0
2015-Mar-21 18:33N 39°14' W 076°32'0 0.0
2015-Mar-21 17:33N 39°14' W 076°32'0 0.0
2015-Mar-21 16:28N 39°14' W 076°32'0 0.0
2015-Mar-21 15:33N 39°14' W 076°32'0 0.0
2015-Mar-21 14:33N 39°14' W 076°32'0 0.0
2015-Mar-21 13:33N 39°14' W 076°32'0 0.0
2015-Mar-21 12:33N 39°14' W 076°32'0 0.0
2015-Mar-21 11:33N 39°14' W 076°32'2 1.9
2015-Mar-21 10:33N 39°13' W 076°31'1010.2
2015-Mar-21 09:33N 39°04' W 076°24'1616.4
2015-Mar-21 08:34N 38°48' W 076°25'  
2015-Mar-19 03:22N 31°58' W 080°24'7 9.2
2015-Mar-19 02:33N 31°57' W 080°33'9 8.8
2015-Mar-19 01:33N 31°58' W 080°43'1313.3
2015-Mar-19 00:33N 32°04' W 080°57'8 7.5
2015-Mar-18 23:33N 32°05' W 081°06'0 0.0
2015-Mar-18 22:31N 32°05' W 081°06'0 0.0
2015-Mar-18 21:31N 32°05' W 081°06'0 0.0
2015-Mar-18 20:31N 32°05' W 081°06'0 0.0
2015-Mar-18 19:31N 32°05' W 081°06'0 0.0
2015-Mar-18 18:31N 32°05' W 081°06'0 0.0
2015-Mar-18 17:31N 32°05' W 081°06'0 0.0
2015-Mar-18 16:31N 32°05' W 081°06'0 0.0
2015-Mar-18 15:32N 32°05' W 081°06'0 0.0
2015-Mar-18 14:32N 32°05' W 081°06'0 0.0
2015-Mar-18 13:32N 32°05' W 081°06'0 0.0
2015-Mar-18 12:28N 32°05' W 081°06'0 0.0
2015-Mar-18 11:31N 32°05' W 081°06'0 0.0
2015-Mar-18 10:31N 32°05' W 081°06'0 0.0
2015-Mar-18 09:31N 32°05' W 081°06'1 1.2
2015-Mar-18 08:33N 32°06' W 081°07'4 3.9
2015-Mar-18 07:33N 32°05' W 081°02'1212.5
2015-Mar-18 06:34N 32°01' W 080°48'1010.1
2015-Mar-18 05:33N 31°56' W 080°38'6 6.4
2015-Mar-18 04:33N 31°56' W 080°30'7 6.8
2015-Mar-18 03:33N 31°54' W 080°22'75 4.1
2015-Mar-17 09:33N 31°07' W 081°30'10 9.7
2015-Mar-17 08:33N 31°06' W 081°19'8 8.1
2015-Mar-17 07:33N 31°01' W 081°12'12 9.0
2015-Mar-17 06:14N 30°57' W 080°59'6 9.2
2015-Mar-17 05:32N 30°55' W 080°52'1111.1
2015-Mar-17 04:34N 30°45' W 080°46'1212.1
2015-Mar-17 03:33N 30°34' W 080°40'1211.9
2015-Mar-17 02:33N 30°23' W 080°34'10 9.7
2015-Mar-17 01:33N 30°14' W 080°30'21313.3
2015-Mar-16 09:33N 26°49' W 079°25'3918.1
2015-Mar-16 07:25N 26°10' W 079°28'1618.5
2015-Mar-16 06:33N 25°54' W 079°31'3818.8
2015-Mar-16 04:33N 25°17' W 079°37'2318.2
2015-Mar-16 03:16N 24°54' W 079°42'1317.6
2015-Mar-16 02:32N 24°42' W 079°47'  

Dump ship's entire track history